Fredonia, Pennsylvania
Current Conditions -  °F | °C
As of 5:15 AM on Thursday 29 Jan 2015 (Local Time) from KFKL Reporting Station
Overcast Overcast  
Wind Chill:   Ceiling: 9000
Heat Index: 18°   Visibility: 10mi
Dew Point:   Wind: 9mph
Humidity: 68%   Direction: 120°ESE
Pressure: 30.11"   Gusts: NA
Location:  41.32°N, 80.26°W
Report Text: KFKL 291015Z AUTO 12008KT 10SM BKN090 OVC120 M08/M13 A3011 RMK AO1
Loading
Personal Weather Stations






























Interactive Weather Map New forecast layout! Learn more

10-Day Weather Forecast

Advertisements
Track Severe Weather on mobile